Detall de PIREP

Printer-friendly versionPDF version

[2012/05/13 07:50:00]
Flight IATA:CT3405
Pilot Number:042
Company ICAO:CAT
Aircraft Type:B763/F
PAX:150
Departing Airport: GCLP
Destination Airport: LEBL
Alternate Airport:LEPA
Online: VATSIM
Route:KORAL UG5 SONSO UN871 VTB UN10 CJN UL27 BRITO UN870 SEROX UN860 CASPE
Flight Level:F360
No Slew and time accel
No pause
Crash detect
Detect pilot in Cockpit between each 30 and 45 minutes
07:50 Zero fuel Weight: 244975 Lbs, Fuel Weight: 161135 Lbs
07:50 VATSIM:GCLP 130730Z 01005KT 340V040 CAVOK 22/19 Q1014 NOSIG
07:50 VATSIM:LEBL 130730Z 09007KT 9999 FEW025 19/17 Q1020 NOSIG
07:52 VOICE CATALONIAN
08:16 Parking Brakes off
08:23 Take-off
08:23 Take off Weight: 403154 Lbs
08:23 Wind: 027º @ 004 Knots Heading: 021º
08:23 POS N27º 56´ 15´´ W015º 23´ 02´´
08:23 Gear Up: 189 Knots
08:23 Flaps:3 at 189 Knots
08:23 Flaps:2 at 180 Knots
08:23 Flaps:1 at 182 Knots
08:24 Flaps:0 at 206 Knots
08:26 Flaps:1 at 228 Knots
08:27 Flaps:0 at 228 Knots
08:38 Wind:357º@015 Knots Heading: 055º Ground Speed: 475 Knots Altitude 25780 ft
08:43 TOC
08:43 Fuel Weight: 149186 Lb
08:53 Wind:063º@013 Knots Heading: 056º Ground Speed: 449 Knots Altitude 36036 ft
09:08 Wind:071º@026 Knots Heading: 056º Ground Speed: 441 Knots Altitude 36046 ft
09:23 Wind:083º@015 Knots Heading: 033º Ground Speed: 459 Knots Altitude 36099 ft
09:38 Wind:045º@011 Knots Heading: 032º Ground Speed: 454 Knots Altitude 36017 ft
09:53 Wind:069º@036 Knots Heading: 035º Ground Speed: 434 Knots Altitude 36145 ft
10:08 Wind:077º@010 Knots Heading: 046º Ground Speed: 456 Knots Altitude 36184 ft
10:23 Wind:158º@005 Knots Heading: 023º Ground Speed: 472 Knots Altitude 36197 ft
10:38 Wind:202º@021 Knots Heading: 051º Ground Speed: 486 Knots Altitude 36243 ft
10:53 Wind:310º@056 Knots Heading: 071º Ground Speed: 492 Knots Altitude 36200 ft
10:54 TOD
10:54 Fuel Weight: 124592 Lb
11:08 Wind:120º@032 Knots Heading: 088º Ground Speed: 298 Knots Altitude 16587 ft
11:12 Flaps:1 at 239 Knots
11:16 Flaps:2 at 206 Knots
11:20 Flaps:3 at 166 Knots
11:22 Gear Down: 169 Knots
11:22 Flaps:4 at 170 Knots
11:22 Flaps:5 at 170 Knots
11:22 Flaps:4 at 170 Knots
11:22 Flaps:6 at 169 Knots
11:22 Flaps:4 at 168 Knots
11:22 Flaps:6 at 168 Knots
11:23 Wind:121º@007 Knots Heading: 239º Ground Speed: 168 Knots Altitude 1653 ft
11:24 TouchDown:Rate -182 ft/min Speed: 150 Knots
11:25 VATSIM:LEBL 131100Z 12007KT 080V170 9999 FEW018 21/15 Q1020 NOSIG
11:25 Land
11:25 Wind:121º@007 Knots
11:25 Heading: 246º
11:25 Flight Duration: 03:02
11:25 Landing Weight: 366275 Lbs
11:25 POS N41º 17´ 57´´ E002º 05´ 07´´
11:33 Parking brakes on
11:33 Block to Block Duration: 03:17
11:33 Final Fuel: 119120 Lbls
11:33 Spent Fuel: 42015 Lbls
11:33 Flight Length: 1274 NM
11:33 TOD Land Length: 150 NM

Exportar CSV

Powered by Drupal - Modified by Danger4k